Platzwetter Flugplatz Wels

Flugwetter Linz LOWL

[Quelle: ADDS]
METAR
LOWL 181750Z 29009KT 9999 FEW070 BKN300 27/11 Q1014 NOSIG =
TAF
LOWL 181715Z 1818/1918 28010KT 9999 FEW050 TX28/1915Z TN16/1904Z BECMG 1818/1819 27004KT CAVOK BECMG 1908/1910 29010KT 9999 FEW050 =

Flugwetter Salzburg LOWS

[Quelle: ADDS]
METAR
LOWS 181750Z 05002KT 9999 FEW050 SCT080 26/15 Q1015 NOSIG =
TAF
LOWS 181715Z 1818/1918 29006KT 9999 SCT060 SCT100 TX28/1914Z TN15/1903Z BECMG 1818/1820 15005KT BECMG 1907/1909 34006KT BECMG 1916/1918 15005KT CAVOK =

Wind - Verlauf

Windrichtung - Verlauf

Temperatur - Verlauf

Relative Luftfeuchtigkeit - Verlauf

Luftdruck - Verlauf


JU 52 Nostalgie-Rundflüge - hier am Flugplatz Wels!

Tickets, Termine und Infos, hier am Flugplatz Wels. Tickethotline +43 7242 26499 0

Pilot für einen Tag - Erfülle Dir den Traum vom Fliegen!

Werde einen Tag lang Pilot bei und mit dem Fliegerclub Weiße Möwe in Wels!

Stadt - Wels

Ausflugsziele & Sehenswürdigkeiten
in Wels und Umgebung

Cookies erleichtern die Bereitstellung unserer Dienste. Mit der Nutzung unserer Dienste erklären Sie sich damit einverstanden, dass wir Cookies verwenden.
Weitere Informationen Ok